sensor_id;sensor_type;location;lat;lon;timestamp;P1;durP1;ratioP1;P2;durP2;ratioP2
4132;SDS011;2080;51.038;7.008;2023-05-10T00:00:54;1527.20;;;999.90;;
4132;SDS011;2080;51.038;7.008;2023-05-10T00:03:22;1770.45;;;999.90;;
4132;SDS011;2080;51.038;7.008;2023-05-10T00:05:47;1544.85;;;999.90;;
4132;SDS011;2080;51.038;7.008;2023-05-10T00:08:16;1625.47;;;999.90;;
4132;SDS011;2080;51.038;7.008;2023-05-10T00:10:41;1441.05;;;999.90;;
4132;SDS011;2080;51.038;7.008;2023-05-10T00:13:09;1527.38;;;999.90;;
4132;SDS011;2080;51.038;7.008;2023-05-10T00:15:34;1343.70;;;999.90;;
4132;SDS011;2080;51.038;7.008;2023-05-10T00:18:00;1358.20;;;999.90;;
4132;SDS011;2080;51.038;7.008;2023-05-10T00:20:27;1533.07;;;999.90;;
4132;SDS011;2080;51.038;7.008;2023-05-10T00:22:52;1537.93;;;999.90;;
4132;SDS011;2080;51.038;7.008;2023-05-10T00:25:18;1828.53;;;999.90;;
4132;SDS011;2080;51.038;7.008;2023-05-10T00:27:43;1676.67;;;999.90;;
4132;SDS011;2080;51.038;7.008;2023-05-10T00:30:11;1678.68;;;999.90;;
4132;SDS011;2080;51.038;7.008;2023-05-10T00:32:36;1655.72;;;999.90;;
4132;SDS011;2080;51.038;7.008;2023-05-10T00:35:01;1729.10;;;999.90;;
4132;SDS011;2080;51.038;7.008;2023-05-10T00:37:27;1245.47;;;999.90;;
4132;SDS011;2080;51.038;7.008;2023-05-10T00:39:54;1367.33;;;999.90;;
4132;SDS011;2080;51.038;7.008;2023-05-10T00:42:22;1607.22;;;999.90;;
4132;SDS011;2080;51.038;7.008;2023-05-10T00:44:47;1720.20;;;999.90;;
4132;SDS011;2080;51.038;7.008;2023-05-10T00:47:13;1903.60;;;999.90;;
4132;SDS011;2080;51.038;7.008;2023-05-10T00:49:39;1657.40;;;999.90;;
4132;SDS011;2080;51.038;7.008;2023-05-10T00:52:08;1877.57;;;999.90;;
4132;SDS011;2080;51.038;7.008;2023-05-10T00:54:34;1749.32;;;999.90;;
4132;SDS011;2080;51.038;7.008;2023-05-10T00:56:59;1701.40;;;999.90;;
4132;SDS011;2080;51.038;7.008;2023-05-10T00:59:27;1387.73;;;999.90;;
4132;SDS011;2080;51.038;7.008;2023-05-10T01:01:53;1528.95;;;999.90;;
4132;SDS011;2080;51.038;7.008;2023-05-10T01:04:19;1670.83;;;999.90;;
4132;SDS011;2080;51.038;7.008;2023-05-10T01:06:50;1522.60;;;999.90;;
4132;SDS011;2080;51.038;7.008;2023-05-10T01:09:16;1391.63;;;999.90;;
4132;SDS011;2080;51.038;7.008;2023-05-10T01:14:18;1442.82;;;999.90;;
4132;SDS011;2080;51.038;7.008;2023-05-10T01:16:44;1622.77;;;999.90;;
4132;SDS011;2080;51.038;7.008;2023-05-10T01:19:19;1579.95;;;999.90;;
4132;SDS011;2080;51.038;7.008;2023-05-10T01:25:05;1269.68;;;999.90;;
4132;SDS011;2080;51.038;7.008;2023-05-10T01:39:02;1246.97;;;999.90;;
4132;SDS011;2080;51.038;7.008;2023-05-10T01:46:57;1356.07;;;999.90;;
4132;SDS011;2080;51.038;7.008;2023-05-10T01:49:37;1284.53;;;999.90;;
4132;SDS011;2080;51.038;7.008;2023-05-10T01:52:08;1217.40;;;999.90;;
4132;SDS011;2080;51.038;7.008;2023-05-10T01:54:40;1285.88;;;999.90;;
4132;SDS011;2080;51.038;7.008;2023-05-10T01:57:16;1361.82;;;999.90;;
4132;SDS011;2080;51.038;7.008;2023-05-10T01:59:45;1479.43;;;999.90;;
4132;SDS011;2080;51.038;7.008;2023-05-10T02:02:14;1309.10;;;999.90;;
4132;SDS011;2080;51.038;7.008;2023-05-10T02:04:41;1186.85;;;999.90;;
4132;SDS011;2080;51.038;7.008;2023-05-10T02:07:12;1474.50;;;999.90;;
4132;SDS011;2080;51.038;7.008;2023-05-10T02:09:39;1209.10;;;999.90;;
4132;SDS011;2080;51.038;7.008;2023-05-10T02:12:07;982.10;;;892.45;;
4132;SDS011;2080;51.038;7.008;2023-05-10T02:14:36;1342.95;;;999.90;;
4132;SDS011;2080;51.038;7.008;2023-05-10T02:17:04;1193.10;;;999.90;;
4132;SDS011;2080;51.038;7.008;2023-05-10T02:19:34;1171.82;;;999.90;;
4132;SDS011;2080;51.038;7.008;2023-05-10T02:22:02;1299.70;;;999.90;;
4132;SDS011;2080;51.038;7.008;2023-05-10T02:24:28;1055.33;;;957.17;;
4132;SDS011;2080;51.038;7.008;2023-05-10T02:26:55;1183.18;;;999.90;;
4132;SDS011;2080;51.038;7.008;2023-05-10T02:29:24;1323.80;;;999.90;;
4132;SDS011;2080;51.038;7.008;2023-05-10T02:31:52;1240.75;;;999.90;;
4132;SDS011;2080;51.038;7.008;2023-05-10T02:34:20;1318.95;;;999.90;;
4132;SDS011;2080;51.038;7.008;2023-05-10T02:36:49;1103.10;;;999.27;;
4132;SDS011;2080;51.038;7.008;2023-05-10T02:39:16;1508.43;;;999.90;;
4132;SDS011;2080;51.038;7.008;2023-05-10T02:41:44;1514.03;;;999.90;;
4132;SDS011;2080;51.038;7.008;2023-05-10T02:44:11;1382.18;;;999.90;;
4132;SDS011;2080;51.038;7.008;2023-05-10T02:46:43;1439.60;;;999.90;;
4132;SDS011;2080;51.038;7.008;2023-05-10T02:49:09;1400.10;;;999.90;;
4132;SDS011;2080;51.038;7.008;2023-05-10T02:51:35;1310.00;;;999.90;;
4132;SDS011;2080;51.038;7.008;2023-05-10T02:54:10;1320.53;;;999.90;;
4132;SDS011;2080;51.038;7.008;2023-05-10T02:56:42;1356.13;;;999.90;;
4132;SDS011;2080;51.038;7.008;2023-05-10T02:59:12;1180.65;;;999.90;;
4132;SDS011;2080;51.038;7.008;2023-05-10T03:01:37;1200.87;;;999.90;;
4132;SDS011;2080;51.038;7.008;2023-05-10T03:04:05;1369.75;;;999.90;;
4132;SDS011;2080;51.038;7.008;2023-05-10T03:06:31;1434.03;;;999.90;;
4132;SDS011;2080;51.038;7.008;2023-05-10T03:08:56;1500.57;;;999.90;;
4132;SDS011;2080;51.038;7.008;2023-05-10T03:14:07;1442.43;;;999.90;;
4132;SDS011;2080;51.038;7.008;2023-05-10T03:16:45;1312.80;;;999.90;;
4132;SDS011;2080;51.038;7.008;2023-05-10T03:19:30;1491.07;;;999.90;;
4132;SDS011;2080;51.038;7.008;2023-05-10T03:22:06;1462.03;;;999.90;;
4132;SDS011;2080;51.038;7.008;2023-05-10T03:24:35;1657.55;;;999.90;;
4132;SDS011;2080;51.038;7.008;2023-05-10T03:27:04;1668.70;;;999.90;;
4132;SDS011;2080;51.038;7.008;2023-05-10T03:29:31;1678.82;;;999.90;;
4132;SDS011;2080;51.038;7.008;2023-05-10T03:32:00;1577.07;;;999.90;;
4132;SDS011;2080;51.038;7.008;2023-05-10T03:34:25;1959.03;;;999.90;;
4132;SDS011;2080;51.038;7.008;2023-05-10T03:36:54;1999.90;;;999.90;;
4132;SDS011;2080;51.038;7.008;2023-05-10T03:39:20;1999.90;;;999.90;;
4132;SDS011;2080;51.038;7.008;2023-05-10T03:41:46;1999.90;;;999.90;;
4132;SDS011;2080;51.038;7.008;2023-05-10T03:44:14;1999.90;;;999.90;;
4132;SDS011;2080;51.038;7.008;2023-05-10T03:46:39;1999.90;;;999.90;;
4132;SDS011;2080;51.038;7.008;2023-05-10T03:49:08;1784.03;;;999.90;;
4132;SDS011;2080;51.038;7.008;2023-05-10T03:51:36;1815.77;;;999.90;;
4132;SDS011;2080;51.038;7.008;2023-05-10T03:54:02;1867.43;;;999.90;;
4132;SDS011;2080;51.038;7.008;2023-05-10T03:56:27;1754.13;;;999.90;;
4132;SDS011;2080;51.038;7.008;2023-05-10T03:58:53;1705.70;;;999.90;;
4132;SDS011;2080;51.038;7.008;2023-05-10T04:01:23;1615.45;;;999.90;;
4132;SDS011;2080;51.038;7.008;2023-05-10T04:03:48;1534.67;;;999.90;;
4132;SDS011;2080;51.038;7.008;2023-05-10T04:06:14;1629.50;;;999.90;;
4132;SDS011;2080;51.038;7.008;2023-05-10T04:08:39;1538.63;;;999.90;;
4132;SDS011;2080;51.038;7.008;2023-05-10T04:11:10;1582.05;;;999.90;;
4132;SDS011;2080;51.038;7.008;2023-05-10T04:13:40;1674.45;;;999.90;;
4132;SDS011;2080;51.038;7.008;2023-05-10T04:16:05;1739.43;;;999.90;;
4132;SDS011;2080;51.038;7.008;2023-05-10T04:18:33;1943.30;;;999.90;;
4132;SDS011;2080;51.038;7.008;2023-05-10T04:20:58;1908.17;;;999.90;;
4132;SDS011;2080;51.038;7.008;2023-05-10T04:23:23;1771.73;;;999.90;;
4132;SDS011;2080;51.038;7.008;2023-05-10T04:25:49;1587.88;;;999.90;;
4132;SDS011;2080;51.038;7.008;2023-05-10T04:28:14;1678.40;;;999.90;;
4132;SDS011;2080;51.038;7.008;2023-05-10T04:30:39;1653.50;;;999.90;;
4132;SDS011;2080;51.038;7.008;2023-05-10T04:33:07;1775.17;;;999.90;;
4132;SDS011;2080;51.038;7.008;2023-05-10T04:35:33;1829.05;;;999.90;;
4132;SDS011;2080;51.038;7.008;2023-05-10T04:37:59;1568.22;;;999.90;;
4132;SDS011;2080;51.038;7.008;2023-05-10T04:40:27;1798.00;;;999.90;;
4132;SDS011;2080;51.038;7.008;2023-05-10T04:42:52;1835.17;;;999.90;;
4132;SDS011;2080;51.038;7.008;2023-05-10T04:45:17;1757.57;;;999.90;;
4132;SDS011;2080;51.038;7.008;2023-05-10T04:47:45;1550.77;;;999.90;;
4132;SDS011;2080;51.038;7.008;2023-05-10T04:50:10;1636.05;;;999.90;;
4132;SDS011;2080;51.038;7.008;2023-05-10T04:52:36;1570.67;;;999.90;;
4132;SDS011;2080;51.038;7.008;2023-05-10T04:55:01;1384.83;;;999.90;;
4132;SDS011;2080;51.038;7.008;2023-05-10T04:57:27;1227.20;;;999.90;;
4132;SDS011;2080;51.038;7.008;2023-05-10T04:59:52;1293.70;;;999.90;;
4132;SDS011;2080;51.038;7.008;2023-05-10T05:02:17;1297.97;;;999.90;;
4132;SDS011;2080;51.038;7.008;2023-05-10T05:04:43;1315.37;;;999.90;;
4132;SDS011;2080;51.038;7.008;2023-05-10T05:07:08;1426.50;;;999.90;;
4132;SDS011;2080;51.038;7.008;2023-05-10T05:09:33;1500.50;;;999.90;;
4132;SDS011;2080;51.038;7.008;2023-05-10T05:12:01;1486.67;;;999.90;;
4132;SDS011;2080;51.038;7.008;2023-05-10T05:14:29;1516.85;;;999.90;;
4132;SDS011;2080;51.038;7.008;2023-05-10T05:16:54;1301.88;;;999.90;;
4132;SDS011;2080;51.038;7.008;2023-05-10T05:19:20;1203.57;;;999.90;;
4132;SDS011;2080;51.038;7.008;2023-05-10T05:21:46;1473.43;;;999.90;;
4132;SDS011;2080;51.038;7.008;2023-05-10T05:24:11;1305.28;;;999.90;;
4132;SDS011;2080;51.038;7.008;2023-05-10T05:26:39;1067.55;;;969.10;;
4132;SDS011;2080;51.038;7.008;2023-05-10T05:29:04;1023.63;;;928.87;;
4132;SDS011;2080;51.038;7.008;2023-05-10T05:31:30;947.95;;;868.30;;
4132;SDS011;2080;51.038;7.008;2023-05-10T05:33:55;988.37;;;903.10;;
4132;SDS011;2080;51.038;7.008;2023-05-10T05:36:21;1095.10;;;996.20;;
4132;SDS011;2080;51.038;7.008;2023-05-10T05:38:46;973.53;;;889.78;;
4132;SDS011;2080;51.038;7.008;2023-05-10T05:41:12;1002.17;;;912.30;;
4132;SDS011;2080;51.038;7.008;2023-05-10T05:43:38;1060.00;;;966.10;;
4132;SDS011;2080;51.038;7.008;2023-05-10T05:46:03;1128.93;;;999.90;;
4132;SDS011;2080;51.038;7.008;2023-05-10T05:48:31;1103.07;;;993.87;;
4132;SDS011;2080;51.038;7.008;2023-05-10T05:50:57;1157.22;;;999.90;;
4132;SDS011;2080;51.038;7.008;2023-05-10T05:53:22;914.08;;;836.35;;
4132;SDS011;2080;51.038;7.008;2023-05-10T05:55:53;1022.60;;;933.85;;
4132;SDS011;2080;51.038;7.008;2023-05-10T05:58:19;1211.13;;;999.90;;
4132;SDS011;2080;51.038;7.008;2023-05-10T06:00:45;1184.60;;;999.90;;
4132;SDS011;2080;51.038;7.008;2023-05-10T06:03:11;1026.20;;;938.27;;
4132;SDS011;2080;51.038;7.008;2023-05-10T06:05:38;1113.78;;;999.78;;
4132;SDS011;2080;51.038;7.008;2023-05-10T06:08:04;998.20;;;913.80;;
4132;SDS011;2080;51.038;7.008;2023-05-10T06:10:31;1049.63;;;960.28;;
4132;SDS011;2080;51.038;7.008;2023-05-10T06:12:57;960.10;;;880.27;;
4132;SDS011;2080;51.038;7.008;2023-05-10T06:15:28;1253.15;;;999.90;;
4132;SDS011;2080;51.038;7.008;2023-05-10T06:17:53;1162.72;;;999.90;;
4132;SDS011;2080;51.038;7.008;2023-05-10T06:20:18;1128.10;;;999.90;;
4132;SDS011;2080;51.038;7.008;2023-05-10T06:22:44;1043.93;;;954.83;;
4132;SDS011;2080;51.038;7.008;2023-05-10T06:25:09;1097.93;;;996.10;;
4132;SDS011;2080;51.038;7.008;2023-05-10T06:27:37;1210.65;;;999.90;;
4132;SDS011;2080;51.038;7.008;2023-05-10T06:30:05;1154.78;;;999.90;;
4132;SDS011;2080;51.038;7.008;2023-05-10T06:32:33;1608.35;;;999.90;;
4132;SDS011;2080;51.038;7.008;2023-05-10T06:34:59;972.13;;;888.60;;
4132;SDS011;2080;51.038;7.008;2023-05-10T06:37:24;1232.27;;;999.90;;
4132;SDS011;2080;51.038;7.008;2023-05-10T06:39:49;1251.70;;;999.90;;
4132;SDS011;2080;51.038;7.008;2023-05-10T06:42:15;1122.77;;;999.90;;
4132;SDS011;2080;51.038;7.008;2023-05-10T06:44:40;1049.60;;;956.37;;
4132;SDS011;2080;51.038;7.008;2023-05-10T06:47:05;1108.27;;;999.80;;
4132;SDS011;2080;51.038;7.008;2023-05-10T06:49:33;1235.53;;;999.90;;
4132;SDS011;2080;51.038;7.008;2023-05-10T06:51:58;1141.32;;;999.90;;
4132;SDS011;2080;51.038;7.008;2023-05-10T06:54:26;1166.43;;;999.90;;
4132;SDS011;2080;51.038;7.008;2023-05-10T06:56:51;1271.60;;;999.90;;
4132;SDS011;2080;51.038;7.008;2023-05-10T06:59:19;1094.73;;;987.83;;
4132;SDS011;2080;51.038;7.008;2023-05-10T07:01:46;1049.35;;;957.83;;
4132;SDS011;2080;51.038;7.008;2023-05-10T07:04:11;1161.73;;;999.90;;
4132;SDS011;2080;51.038;7.008;2023-05-10T07:06:39;1129.03;;;999.90;;
4132;SDS011;2080;51.038;7.008;2023-05-10T07:09:07;1182.23;;;999.90;;
4132;SDS011;2080;51.038;7.008;2023-05-10T07:11:35;1202.70;;;999.90;;
4132;SDS011;2080;51.038;7.008;2023-05-10T07:14:02;1254.33;;;999.90;;
4132;SDS011;2080;51.038;7.008;2023-05-10T07:16:28;1318.00;;;999.90;;
4132;SDS011;2080;51.038;7.008;2023-05-10T07:18:56;1366.60;;;999.90;;
4132;SDS011;2080;51.038;7.008;2023-05-10T07:21:21;1364.88;;;999.90;;
4132;SDS011;2080;51.038;7.008;2023-05-10T07:23:48;1325.55;;;999.90;;
4132;SDS011;2080;51.038;7.008;2023-05-10T07:26:16;1335.68;;;999.90;;
4132;SDS011;2080;51.038;7.008;2023-05-10T07:28:42;1172.90;;;999.90;;
4132;SDS011;2080;51.038;7.008;2023-05-10T07:31:09;1348.50;;;999.90;;
4132;SDS011;2080;51.038;7.008;2023-05-10T07:33:35;1177.70;;;999.90;;
4132;SDS011;2080;51.038;7.008;2023-05-10T07:36:00;1310.50;;;999.90;;
4132;SDS011;2080;51.038;7.008;2023-05-10T07:38:26;1217.35;;;999.90;;
4132;SDS011;2080;51.038;7.008;2023-05-10T07:40:56;1138.93;;;999.90;;
4132;SDS011;2080;51.038;7.008;2023-05-10T07:43:24;1257.63;;;999.90;;
4132;SDS011;2080;51.038;7.008;2023-05-10T07:45:49;1313.32;;;999.90;;
4132;SDS011;2080;51.038;7.008;2023-05-10T07:48:17;1229.20;;;999.90;;
4132;SDS011;2080;51.038;7.008;2023-05-10T07:50:42;1147.72;;;999.90;;
4132;SDS011;2080;51.038;7.008;2023-05-10T07:53:07;1180.23;;;999.90;;
4132;SDS011;2080;51.038;7.008;2023-05-10T07:55:33;1216.80;;;999.90;;
4132;SDS011;2080;51.038;7.008;2023-05-10T07:57:58;1265.23;;;999.90;;
4132;SDS011;2080;51.038;7.008;2023-05-10T08:00:31;1120.10;;;999.90;;
4132;SDS011;2080;51.038;7.008;2023-05-10T08:02:57;1273.40;;;999.90;;
4132;SDS011;2080;51.038;7.008;2023-05-10T08:05:22;1219.97;;;999.90;;
4132;SDS011;2080;51.038;7.008;2023-05-10T08:07:50;1276.20;;;999.90;;
4132;SDS011;2080;51.038;7.008;2023-05-10T08:10:15;1074.07;;;981.67;;
4132;SDS011;2080;51.038;7.008;2023-05-10T08:12:44;1263.78;;;999.90;;
4132;SDS011;2080;51.038;7.008;2023-05-10T08:15:09;1316.18;;;999.90;;
4132;SDS011;2080;51.038;7.008;2023-05-10T08:17:35;1362.88;;;999.90;;
4132;SDS011;2080;51.038;7.008;2023-05-10T08:20:00;1179.63;;;999.90;;
4132;SDS011;2080;51.038;7.008;2023-05-10T08:22:26;1222.30;;;999.90;;
4132;SDS011;2080;51.038;7.008;2023-05-10T08:24:51;1105.97;;;999.90;;
4132;SDS011;2080;51.038;7.008;2023-05-10T08:27:17;1145.43;;;999.90;;
4132;SDS011;2080;51.038;7.008;2023-05-10T08:29:42;1072.00;;;977.77;;
4132;SDS011;2080;51.038;7.008;2023-05-10T08:32:07;1048.40;;;957.00;;
4132;SDS011;2080;51.038;7.008;2023-05-10T08:34:35;1160.10;;;999.90;;
4132;SDS011;2080;51.038;7.008;2023-05-10T08:37:00;1087.77;;;989.60;;
4132;SDS011;2080;51.038;7.008;2023-05-10T08:39:26;1080.00;;;986.70;;
4132;SDS011;2080;51.038;7.008;2023-05-10T08:41:51;1082.17;;;987.50;;
4132;SDS011;2080;51.038;7.008;2023-05-10T08:44:29;1096.40;;;998.35;;
4132;SDS011;2080;51.038;7.008;2023-05-10T08:46:56;1070.20;;;974.33;;
4132;SDS011;2080;51.038;7.008;2023-05-10T08:49:27;1099.70;;;997.40;;
4132;SDS011;2080;51.038;7.008;2023-05-10T08:51:57;1047.32;;;956.70;;
4132;SDS011;2080;51.038;7.008;2023-05-10T08:54:28;1078.25;;;982.70;;
4132;SDS011;2080;51.038;7.008;2023-05-10T08:56:55;1179.80;;;999.90;;
4132;SDS011;2080;51.038;7.008;2023-05-10T08:59:21;1165.33;;;999.90;;
4132;SDS011;2080;51.038;7.008;2023-05-10T09:01:47;1206.53;;;999.90;;
4132;SDS011;2080;51.038;7.008;2023-05-10T09:04:18;1062.50;;;968.50;;
4132;SDS011;2080;51.038;7.008;2023-05-10T09:06:44;1087.47;;;992.88;;
4132;SDS011;2080;51.038;7.008;2023-05-10T09:09:09;1026.60;;;938.87;;
4132;SDS011;2080;51.038;7.008;2023-05-10T09:11:40;1355.97;;;999.90;;
4132;SDS011;2080;51.038;7.008;2023-05-10T09:14:05;1178.63;;;999.90;;
4132;SDS011;2080;51.038;7.008;2023-05-10T09:16:34;1444.97;;;999.90;;
4132;SDS011;2080;51.038;7.008;2023-05-10T09:18:59;1415.23;;;999.90;;
4132;SDS011;2080;51.038;7.008;2023-05-10T09:21:27;1422.32;;;999.90;;
4132;SDS011;2080;51.038;7.008;2023-05-10T09:23:53;1092.93;;;988.70;;
4132;SDS011;2080;51.038;7.008;2023-05-10T09:26:22;1418.78;;;999.90;;
4132;SDS011;2080;51.038;7.008;2023-05-10T09:31:21;754.47;;;680.27;;
4132;SDS011;2080;51.038;7.008;2023-05-10T09:33:52;712.50;;;643.05;;
4132;SDS011;2080;51.038;7.008;2023-05-10T09:36:18;1338.65;;;999.90;;
4132;SDS011;2080;51.038;7.008;2023-05-10T09:41:23;942.30;;;847.65;;
4132;SDS011;2080;51.038;7.008;2023-05-10T09:43:50;1297.07;;;999.90;;
4132;SDS011;2080;51.038;7.008;2023-05-10T09:46:20;1010.33;;;910.22;;
4132;SDS011;2080;51.038;7.008;2023-05-10T09:48:48;1150.97;;;999.90;;
4132;SDS011;2080;51.038;7.008;2023-05-10T09:51:23;1241.45;;;999.90;;
4132;SDS011;2080;51.038;7.008;2023-05-10T09:56:37;1092.60;;;990.90;;
4132;SDS011;2080;51.038;7.008;2023-05-10T09:59:05;1284.03;;;999.90;;
4132;SDS011;2080;51.038;7.008;2023-05-10T10:01:39;1336.13;;;999.90;;
4132;SDS011;2080;51.038;7.008;2023-05-10T10:04:06;863.95;;;783.83;;
4132;SDS011;2080;51.038;7.008;2023-05-10T10:06:39;803.33;;;727.58;;
4132;SDS011;2080;51.038;7.008;2023-05-10T10:09:05;1084.40;;;976.58;;
4132;SDS011;2080;51.038;7.008;2023-05-10T10:11:31;1112.05;;;996.47;;
4132;SDS011;2080;51.038;7.008;2023-05-10T10:13:57;1019.00;;;921.40;;
4132;SDS011;2080;51.038;7.008;2023-05-10T10:16:23;1058.68;;;957.05;;
4132;SDS011;2080;51.038;7.008;2023-05-10T10:18:52;1056.20;;;950.70;;
4132;SDS011;2080;51.038;7.008;2023-05-10T10:21:17;757.33;;;684.27;;
4132;SDS011;2080;51.038;7.008;2023-05-10T10:23:43;951.20;;;863.78;;
4132;SDS011;2080;51.038;7.008;2023-05-10T10:26:09;1094.83;;;975.33;;
4132;SDS011;2080;51.038;7.008;2023-05-10T10:34:28;1045.80;;;903.58;;
4132;SDS011;2080;51.038;7.008;2023-05-10T10:36:57;817.03;;;738.15;;
4132;SDS011;2080;51.038;7.008;2023-05-10T10:39:23;1316.03;;;999.90;;
4132;SDS011;2080;51.038;7.008;2023-05-10T10:41:55;1214.40;;;999.90;;
4132;SDS011;2080;51.038;7.008;2023-05-10T10:49:27;977.90;;;887.85;;
4132;SDS011;2080;51.038;7.008;2023-05-10T10:57:31;1243.40;;;999.90;;
4132;SDS011;2080;51.038;7.008;2023-05-10T11:03:11;1353.90;;;999.90;;
4132;SDS011;2080;51.038;7.008;2023-05-10T11:05:47;939.88;;;855.83;;
4132;SDS011;2080;51.038;7.008;2023-05-10T11:13:32;1325.70;;;999.90;;
4132;SDS011;2080;51.038;7.008;2023-05-10T11:21:32;658.78;;;596.65;;
4132;SDS011;2080;51.038;7.008;2023-05-10T11:24:12;627.33;;;568.20;;
4132;SDS011;2080;51.038;7.008;2023-05-10T11:26:39;467.35;;;395.20;;
4132;SDS011;2080;51.038;7.008;2023-05-10T11:29:07;706.90;;;642.77;;
4132;SDS011;2080;51.038;7.008;2023-05-10T11:31:32;911.28;;;822.55;;
4132;SDS011;2080;51.038;7.008;2023-05-10T11:33:59;472.07;;;381.97;;
4132;SDS011;2080;51.038;7.008;2023-05-10T11:38:54;1403.07;;;999.90;;
4132;SDS011;2080;51.038;7.008;2023-05-10T11:41:21;1295.38;;;999.90;;
4132;SDS011;2080;51.038;7.008;2023-05-10T11:43:48;1162.50;;;999.90;;
4132;SDS011;2080;51.038;7.008;2023-05-10T11:46:16;842.88;;;764.08;;
4132;SDS011;2080;51.038;7.008;2023-05-10T11:48:48;1037.70;;;938.80;;
4132;SDS011;2080;51.038;7.008;2023-05-10T11:51:19;1245.50;;;999.90;;
4132;SDS011;2080;51.038;7.008;2023-05-10T11:53:48;1171.50;;;999.90;;
4132;SDS011;2080;51.038;7.008;2023-05-10T11:56:17;817.65;;;743.80;;
4132;SDS011;2080;51.038;7.008;2023-05-10T11:58:43;964.90;;;878.97;;
4132;SDS011;2080;51.038;7.008;2023-05-10T12:01:08;1187.72;;;999.90;;
4132;SDS011;2080;51.038;7.008;2023-05-10T12:03:35;1052.32;;;943.78;;
4132;SDS011;2080;51.038;7.008;2023-05-10T12:06:03;577.70;;;517.08;;
4132;SDS011;2080;51.038;7.008;2023-05-10T12:08:31;925.15;;;833.40;;
4132;SDS011;2080;51.038;7.008;2023-05-10T12:11:06;526.45;;;470.83;;
4132;SDS011;2080;51.038;7.008;2023-05-10T12:13:37;434.75;;;309.13;;
4132;SDS011;2080;51.038;7.008;2023-05-10T12:16:16;722.17;;;655.25;;
4132;SDS011;2080;51.038;7.008;2023-05-10T12:18:48;410.03;;;269.47;;
4132;SDS011;2080;51.038;7.008;2023-05-10T12:21:19;414.95;;;283.13;;
4132;SDS011;2080;51.038;7.008;2023-05-10T12:23:46;1072.93;;;978.10;;
4132;SDS011;2080;51.038;7.008;2023-05-10T12:26:17;525.63;;;468.95;;
4132;SDS011;2080;51.038;7.008;2023-05-10T12:28:42;376.60;;;188.33;;
4132;SDS011;2080;51.038;7.008;2023-05-10T12:31:08;704.60;;;637.97;;
4132;SDS011;2080;51.038;7.008;2023-05-10T12:33:45;1193.85;;;999.90;;
4132;SDS011;2080;51.038;7.008;2023-05-10T12:36:14;1099.45;;;997.72;;
4132;SDS011;2080;51.038;7.008;2023-05-10T12:38:43;437.95;;;296.83;;
4132;SDS011;2080;51.038;7.008;2023-05-10T12:41:13;576.63;;;516.10;;
4132;SDS011;2080;51.038;7.008;2023-05-10T12:43:39;660.58;;;586.60;;
4132;SDS011;2080;51.038;7.008;2023-05-10T12:46:08;998.35;;;907.40;;
4132;SDS011;2080;51.038;7.008;2023-05-10T12:48:35;444.63;;;257.38;;
4132;SDS011;2080;51.038;7.008;2023-05-10T12:51:01;436.17;;;308.90;;
4132;SDS011;2080;51.038;7.008;2023-05-10T12:53:30;380.17;;;181.98;;
4132;SDS011;2080;51.038;7.008;2023-05-10T12:55:56;825.75;;;752.92;;
4132;SDS011;2080;51.038;7.008;2023-05-10T12:58:29;604.70;;;541.38;;
4132;SDS011;2080;51.038;7.008;2023-05-10T13:00:57;795.72;;;718.17;;
4132;SDS011;2080;51.038;7.008;2023-05-10T13:03:23;577.33;;;495.08;;
4132;SDS011;2080;51.038;7.008;2023-05-10T13:05:51;1198.75;;;999.90;;
4132;SDS011;2080;51.038;7.008;2023-05-10T13:08:22;1083.30;;;986.45;;
4132;SDS011;2080;51.038;7.008;2023-05-10T13:10:49;1139.93;;;999.90;;
4132;SDS011;2080;51.038;7.008;2023-05-10T13:13:15;979.90;;;891.33;;
4132;SDS011;2080;51.038;7.008;2023-05-10T13:15:40;482.20;;;425.17;;
4132;SDS011;2080;51.038;7.008;2023-05-10T13:18:05;1075.77;;;978.43;;
4132;SDS011;2080;51.038;7.008;2023-05-10T13:20:31;1087.43;;;985.23;;
4132;SDS011;2080;51.038;7.008;2023-05-10T13:22:56;492.97;;;425.83;;
4132;SDS011;2080;51.038;7.008;2023-05-10T13:25:24;619.27;;;557.70;;
4132;SDS011;2080;51.038;7.008;2023-05-10T13:27:52;1288.22;;;999.90;;
4132;SDS011;2080;51.038;7.008;2023-05-10T13:30:17;404.10;;;244.87;;
4132;SDS011;2080;51.038;7.008;2023-05-10T13:32:43;606.00;;;546.70;;
4132;SDS011;2080;51.038;7.008;2023-05-10T13:35:08;1167.10;;;999.90;;
4132;SDS011;2080;51.038;7.008;2023-05-10T13:37:36;612.10;;;551.83;;
4132;SDS011;2080;51.038;7.008;2023-05-10T13:40:02;1258.32;;;999.90;;
4132;SDS011;2080;51.038;7.008;2023-05-10T13:42:29;1096.30;;;988.70;;
4132;SDS011;2080;51.038;7.008;2023-05-10T13:44:54;560.47;;;501.20;;
4132;SDS011;2080;51.038;7.008;2023-05-10T13:47:19;519.73;;;463.93;;
4132;SDS011;2080;51.038;7.008;2023-05-10T13:49:48;1260.00;;;999.90;;
4132;SDS011;2080;51.038;7.008;2023-05-10T13:52:16;1060.68;;;965.00;;
4132;SDS011;2080;51.038;7.008;2023-05-10T13:54:41;1294.80;;;999.90;;
4132;SDS011;2080;51.038;7.008;2023-05-10T13:57:07;1213.37;;;999.90;;
4132;SDS011;2080;51.038;7.008;2023-05-10T13:59:32;1138.90;;;999.90;;
4132;SDS011;2080;51.038;7.008;2023-05-10T14:01:58;1185.23;;;999.90;;
4132;SDS011;2080;51.038;7.008;2023-05-10T14:04:24;1329.07;;;999.90;;
4132;SDS011;2080;51.038;7.008;2023-05-10T14:06:51;572.70;;;506.00;;
4132;SDS011;2080;51.038;7.008;2023-05-10T14:09:17;580.85;;;521.20;;
4132;SDS011;2080;51.038;7.008;2023-05-10T14:11:43;487.40;;;413.23;;
4132;SDS011;2080;51.038;7.008;2023-05-10T14:14:09;440.13;;;322.98;;
4132;SDS011;2080;51.038;7.008;2023-05-10T14:16:41;681.63;;;613.60;;
4132;SDS011;2080;51.038;7.008;2023-05-10T14:19:09;856.25;;;774.75;;
4132;SDS011;2080;51.038;7.008;2023-05-10T14:21:35;638.90;;;575.50;;
4132;SDS011;2080;51.038;7.008;2023-05-10T14:24:03;491.42;;;411.00;;
4132;SDS011;2080;51.038;7.008;2023-05-10T14:26:29;734.75;;;667.53;;
4132;SDS011;2080;51.038;7.008;2023-05-10T14:28:56;605.13;;;545.50;;
4132;SDS011;2080;51.038;7.008;2023-05-10T14:31:21;623.10;;;562.78;;
4132;SDS011;2080;51.038;7.008;2023-05-10T14:33:48;666.25;;;603.65;;
4132;SDS011;2080;51.038;7.008;2023-05-10T14:36:17;754.93;;;686.13;;
4132;SDS011;2080;51.038;7.008;2023-05-10T14:38:43;631.10;;;569.73;;
4132;SDS011;2080;51.038;7.008;2023-05-10T14:41:08;907.83;;;829.80;;
4132;SDS011;2080;51.038;7.008;2023-05-10T14:43:39;732.50;;;663.40;;
4132;SDS011;2080;51.038;7.008;2023-05-10T14:46:06;655.75;;;592.92;;
4132;SDS011;2080;51.038;7.008;2023-05-10T14:48:34;665.83;;;600.30;;
4132;SDS011;2080;51.038;7.008;2023-05-10T14:51:00;747.17;;;677.80;;
4132;SDS011;2080;51.038;7.008;2023-05-10T14:53:28;944.17;;;862.20;;
4132;SDS011;2080;51.038;7.008;2023-05-10T14:55:54;768.93;;;699.73;;
4132;SDS011;2080;51.038;7.008;2023-05-10T14:58:19;784.97;;;714.23;;
4132;SDS011;2080;51.038;7.008;2023-05-10T15:00:44;758.27;;;688.07;;
4132;SDS011;2080;51.038;7.008;2023-05-10T15:03:11;905.05;;;826.38;;
4132;SDS011;2080;51.038;7.008;2023-05-10T15:05:38;925.77;;;845.37;;
4132;SDS011;2080;51.038;7.008;2023-05-10T15:08:04;1047.38;;;931.95;;
4132;SDS011;2080;51.038;7.008;2023-05-10T15:10:32;465.83;;;367.23;;
4132;SDS011;2080;51.038;7.008;2023-05-10T15:13:00;773.10;;;703.67;;
4132;SDS011;2080;51.038;7.008;2023-05-10T15:15:25;804.58;;;731.90;;
4132;SDS011;2080;51.038;7.008;2023-05-10T15:17:53;669.20;;;604.35;;